createdAt,value
2023-02-08T00:01:26.911Z,32.80
2023-02-08T00:03:55.099Z,27.63
2023-02-08T00:06:23.466Z,33.25
2023-02-08T00:08:51.456Z,30.48
2023-02-08T00:11:19.329Z,28.63
2023-02-08T00:13:47.398Z,30.67
2023-02-08T00:16:18.306Z,33.58
2023-02-08T00:18:46.524Z,35.15
2023-02-08T00:21:16.749Z,31.98
2023-02-08T00:23:44.721Z,32.67
2023-02-08T00:26:13.106Z,31.85
2023-02-08T00:28:42.257Z,27.52
2023-02-08T00:31:10.300Z,31.90
2023-02-08T00:33:39.742Z,34.08
2023-02-08T00:36:09.458Z,33.28
2023-02-08T00:38:37.625Z,29.45
2023-02-08T00:41:06.502Z,29.35
2023-02-08T00:43:34.984Z,31.40
2023-02-08T00:46:04.312Z,29.33
2023-02-08T00:48:33.250Z,24.73
2023-02-08T00:51:04.911Z,26.15
2023-02-08T00:53:36.845Z,29.20
2023-02-08T00:56:07.062Z,28.52
2023-02-08T00:58:36.038Z,31.85
2023-02-08T01:01:05.770Z,28.00
2023-02-08T01:03:34.550Z,31.33
2023-02-08T01:06:05.432Z,31.42
2023-02-08T01:08:33.908Z,28.70
2023-02-08T01:11:07.544Z,27.70
2023-02-08T01:13:35.784Z,30.05
2023-02-08T01:16:08.840Z,30.23
2023-02-08T01:18:36.963Z,27.20
2023-02-08T01:21:08.452Z,28.55
2023-02-08T01:23:37.267Z,31.00
2023-02-08T01:26:06.464Z,30.60
2023-02-08T01:28:34.654Z,30.10
2023-02-08T01:31:07.132Z,31.48
2023-02-08T01:33:35.394Z,28.58
2023-02-08T01:36:04.018Z,29.15
2023-02-08T01:38:34.525Z,31.55
2023-02-08T01:41:03.760Z,32.47
2023-02-08T01:43:36.183Z,25.38
2023-02-08T01:46:04.380Z,31.20
2023-02-08T01:48:37.833Z,30.08
2023-02-08T01:53:40.974Z,25.50
2023-02-08T01:56:14.166Z,27.17
2023-02-08T01:58:47.488Z,24.50
2023-02-08T02:01:16.795Z,26.85
2023-02-08T02:03:45.121Z,27.85
2023-02-08T02:06:19.356Z,24.50
2023-02-08T02:08:56.803Z,29.52
2023-02-08T02:11:25.639Z,26.70
2023-02-08T02:13:54.909Z,26.30
2023-02-08T02:16:23.256Z,26.48
2023-02-08T02:18:52.116Z,37.88
2023-02-08T02:21:38.687Z,28.00
2023-02-08T02:24:42.194Z,24.05
2023-02-08T02:27:30.909Z,28.42
2023-02-08T02:30:33.612Z,27.10
2023-02-08T02:33:14.099Z,25.65
2023-02-08T02:35:52.837Z,24.58
2023-02-08T02:38:31.255Z,27.02
2023-02-08T02:41:07.218Z,28.38
2023-02-08T02:43:46.396Z,29.48
2023-02-08T02:46:25.973Z,23.42
2023-02-08T02:49:03.331Z,26.70
2023-02-08T02:51:39.633Z,27.73
2023-02-08T02:54:12.518Z,26.98
2023-02-08T02:56:45.098Z,27.52
2023-02-08T02:59:15.892Z,28.92
2023-02-08T03:01:45.745Z,25.67
2023-02-08T03:04:17.743Z,33.97
2023-02-08T03:07:01.054Z,26.30
2023-02-08T03:09:47.000Z,29.33
2023-02-08T03:12:30.720Z,28.45
2023-02-08T03:17:49.272Z,27.08
2023-02-08T03:20:23.766Z,30.08
2023-02-08T03:23:00.372Z,22.08
2023-02-08T03:25:36.593Z,26.35
2023-02-08T03:28:12.120Z,27.58
2023-02-08T03:30:48.431Z,27.00
2023-02-08T03:33:22.568Z,26.08
2023-02-08T03:35:58.268Z,30.35
2023-02-08T03:38:30.296Z,27.95
2023-02-08T03:41:01.585Z,29.30
2023-02-08T03:43:33.765Z,27.10
2023-02-08T03:46:08.638Z,26.92
2023-02-08T03:48:39.866Z,26.73
2023-02-08T03:51:10.837Z,31.73
2023-02-08T03:53:41.448Z,28.08
2023-02-08T03:56:15.241Z,24.92
2023-02-08T03:58:47.976Z,25.35
2023-02-08T04:01:20.524Z,28.75
2023-02-08T04:03:53.557Z,27.63
2023-02-08T04:06:23.701Z,27.83
2023-02-08T04:08:51.852Z,30.52
2023-02-08T04:11:19.993Z,30.27
2023-02-08T04:13:48.022Z,31.83
2023-02-08T04:16:16.159Z,24.58
2023-02-08T04:18:44.134Z,25.45
2023-02-08T04:21:12.319Z,27.27
2023-02-08T04:23:41.737Z,30.98
2023-02-08T04:26:09.828Z,27.60
2023-02-08T04:28:37.787Z,28.65
2023-02-08T04:31:06.137Z,26.77
2023-02-08T04:33:34.330Z,28.52
2023-02-08T04:36:03.033Z,27.40
2023-02-08T04:38:31.432Z,28.58
2023-02-08T04:41:00.741Z,31.73
2023-02-08T04:43:28.745Z,33.42
2023-02-08T04:45:56.850Z,28.83
2023-02-08T04:48:25.046Z,30.48
2023-02-08T04:50:56.309Z,30.73
2023-02-08T04:53:24.725Z,29.25
2023-02-08T04:55:53.409Z,26.35
2023-02-08T04:58:23.030Z,30.10
2023-02-08T05:00:51.266Z,28.67
2023-02-08T05:03:19.352Z,28.98
2023-02-08T05:05:47.377Z,31.48
2023-02-08T05:08:15.466Z,28.98
2023-02-08T05:10:46.036Z,26.42
2023-02-08T05:13:13.990Z,27.15
2023-02-08T05:15:43.483Z,29.45
2023-02-08T05:18:11.665Z,31.25
2023-02-08T05:20:40.116Z,29.65
2023-02-08T05:23:08.398Z,27.65
2023-02-08T05:25:36.469Z,32.05
2023-02-08T05:28:04.624Z,29.88
2023-02-08T05:30:32.617Z,30.40
2023-02-08T05:33:02.244Z,30.23
2023-02-08T05:35:30.332Z,27.48
2023-02-08T05:37:58.255Z,30.23
2023-02-08T05:40:26.224Z,29.73
2023-02-08T05:42:54.449Z,31.55
2023-02-08T05:45:22.632Z,33.85
2023-02-08T05:47:50.645Z,31.23
2023-02-08T05:50:20.183Z,32.92
2023-02-08T05:52:51.890Z,33.88
2023-02-08T05:55:19.929Z,35.60
2023-02-08T05:57:47.977Z,30.23
2023-02-08T06:00:17.262Z,31.63
2023-02-08T06:02:45.668Z,31.33
2023-02-08T06:05:14.361Z,36.50
2023-02-08T06:07:43.808Z,29.42
2023-02-08T06:10:14.445Z,33.40
2023-02-08T06:12:43.547Z,34.22
2023-02-08T06:15:12.933Z,33.80
2023-02-08T06:17:41.003Z,34.72
2023-02-08T06:20:11.146Z,32.15
2023-02-08T06:22:40.038Z,38.38
2023-02-08T06:25:11.126Z,31.92
2023-02-08T06:27:39.764Z,31.98
2023-02-08T06:30:08.842Z,35.08
2023-02-08T06:32:37.271Z,32.75
2023-02-08T06:35:07.272Z,32.38
2023-02-08T06:37:35.360Z,34.88
2023-02-08T06:40:04.255Z,31.42
2023-02-08T06:42:34.204Z,37.50
2023-02-08T06:45:02.447Z,34.20
2023-02-08T06:47:31.837Z,30.77
2023-02-08T06:50:00.044Z,33.72
2023-02-08T06:52:28.108Z,32.88
2023-02-08T06:54:56.518Z,31.95
2023-02-08T06:57:24.876Z,33.20
2023-02-08T06:59:54.479Z,32.78
2023-02-08T07:02:23.476Z,33.13
2023-02-08T07:04:51.898Z,30.83
2023-02-08T07:07:21.202Z,30.27
2023-02-08T07:09:49.460Z,36.20
2023-02-08T07:12:18.331Z,29.83
2023-02-08T07:14:46.877Z,31.95
2023-02-08T07:17:16.700Z,29.63
2023-02-08T07:19:45.336Z,33.70
2023-02-08T07:22:13.670Z,32.08
2023-02-08T07:24:43.008Z,34.55
2023-02-08T07:27:13.899Z,31.20
2023-02-08T07:29:42.306Z,34.00
2023-02-08T07:32:11.635Z,34.05
2023-02-08T07:34:41.678Z,38.13
2023-02-08T07:37:09.812Z,31.77
2023-02-08T07:39:37.880Z,35.35
2023-02-08T07:42:06.755Z,32.13
2023-02-08T07:44:42.609Z,36.22
2023-02-08T07:47:12.537Z,32.90
2023-02-08T07:49:41.990Z,38.45
2023-02-08T07:52:10.071Z,33.47
2023-02-08T07:54:39.017Z,30.95
2023-02-08T07:57:10.139Z,33.63
2023-02-08T07:59:40.229Z,31.77
2023-02-08T08:02:10.105Z,29.80
2023-02-08T08:04:38.440Z,38.67
2023-02-08T08:07:08.045Z,31.92
2023-02-08T08:09:36.354Z,35.13
2023-02-08T08:12:05.378Z,37.65
2023-02-08T08:14:33.611Z,35.33
2023-02-08T08:17:01.622Z,35.10
2023-02-08T08:19:29.860Z,31.42
2023-02-08T08:21:59.249Z,38.03
2023-02-08T08:24:30.312Z,33.72
2023-02-08T08:26:58.766Z,36.72
2023-02-08T08:29:27.068Z,30.48
2023-02-08T08:31:55.423Z,32.97
2023-02-08T08:34:29.707Z,34.47
2023-02-08T08:36:57.851Z,37.60
2023-02-08T08:39:27.421Z,35.67
2023-02-08T08:41:58.586Z,30.65
2023-02-08T08:44:26.900Z,30.52
2023-02-08T08:46:56.812Z,34.70
2023-02-08T08:49:25.618Z,32.90
2023-02-08T08:51:53.669Z,33.25
2023-02-08T08:54:23.538Z,37.05
2023-02-08T08:56:52.475Z,32.40
2023-02-08T08:59:22.117Z,28.85
2023-02-08T09:01:50.517Z,32.10
2023-02-08T09:04:18.676Z,28.42
2023-02-08T09:06:46.704Z,31.70
2023-02-08T09:09:15.284Z,27.23
2023-02-08T09:11:43.978Z,31.30
2023-02-08T09:14:14.996Z,31.23
2023-02-08T09:16:47.984Z,33.22
2023-02-08T09:19:17.204Z,33.50
2023-02-08T09:21:45.886Z,33.25
2023-02-08T09:24:14.759Z,31.90
2023-02-08T09:26:43.014Z,34.38
2023-02-08T09:29:11.237Z,30.33
2023-02-08T09:31:39.951Z,26.35
2023-02-08T09:34:10.266Z,31.10
2023-02-08T09:36:41.479Z,32.08
2023-02-08T09:39:13.500Z,28.95
2023-02-08T09:42:25.737Z,25.05
2023-02-08T09:45:14.144Z,26.15
2023-02-08T09:47:49.782Z,25.50
2023-02-08T09:50:22.629Z,31.48
2023-02-08T09:52:59.241Z,27.92
2023-02-08T09:55:33.357Z,30.38
2023-02-08T09:58:06.334Z,23.27
2023-02-08T10:00:38.878Z,28.13
2023-02-08T10:03:11.007Z,28.67
2023-02-08T10:05:40.625Z,22.48
2023-02-08T10:08:12.226Z,22.75
2023-02-08T10:10:50.909Z,22.05
2023-02-08T10:13:41.694Z,24.10
2023-02-08T10:16:19.580Z,30.80
2023-02-08T10:18:58.345Z,20.50
2023-02-08T10:21:46.625Z,25.65
2023-02-08T10:24:31.027Z,23.05
2023-02-08T10:27:06.725Z,38.08
2023-02-08T10:29:56.954Z,26.58
2023-02-08T10:32:39.390Z,25.95
2023-02-08T10:35:13.943Z,22.15
2023-02-08T10:37:46.494Z,22.73
2023-02-08T10:40:25.408Z,21.30
2023-02-08T10:43:01.982Z,19.10
2023-02-08T10:45:37.328Z,21.80
2023-02-08T10:48:12.737Z,25.70
2023-02-08T10:50:43.554Z,22.38
2023-02-08T10:53:17.058Z,20.77
2023-02-08T10:58:18.260Z,26.10
2023-02-08T11:00:47.769Z,19.83
2023-02-08T11:03:19.791Z,19.48
2023-02-08T11:05:48.370Z,18.00
2023-02-08T11:08:20.480Z,17.58
2023-02-08T11:10:58.506Z,25.98
2023-02-08T11:13:35.425Z,19.30
2023-02-08T11:16:07.330Z,17.27
2023-02-08T11:18:39.059Z,20.08
2023-02-08T11:21:11.240Z,19.05
2023-02-08T11:23:43.914Z,23.27
2023-02-08T11:26:20.693Z,18.20
2023-02-08T11:29:01.284Z,18.92
2023-02-08T11:31:30.169Z,17.50
2023-02-08T11:34:03.540Z,17.77
2023-02-08T11:36:33.271Z,13.80
2023-02-08T11:39:16.275Z,17.73
2023-02-08T11:41:45.932Z,15.93
2023-02-08T11:44:22.609Z,16.85
2023-02-08T11:46:52.171Z,15.02
2023-02-08T11:49:26.942Z,13.63
2023-02-08T11:51:55.522Z,13.80
2023-02-08T11:54:41.361Z,13.90
2023-02-08T11:57:19.269Z,20.30
2023-02-08T11:59:48.025Z,11.23
2023-02-08T12:02:30.411Z,15.57
2023-02-08T12:04:59.787Z,19.48
2023-02-08T12:07:50.458Z,11.05
2023-02-08T12:10:48.310Z,11.05
2023-02-08T12:13:35.118Z,12.48
2023-02-08T12:16:37.526Z,9.43
2023-02-08T12:19:31.510Z,9.40
2023-02-08T12:22:07.663Z,10.13
2023-02-08T12:24:46.857Z,11.32
2023-02-08T12:27:31.281Z,10.43
2023-02-08T12:30:08.561Z,9.98
2023-02-08T12:32:54.442Z,8.73
2023-02-08T12:36:05.302Z,10.55
2023-02-08T12:39:26.699Z,8.77
2023-02-08T12:42:43.875Z,10.88
2023-02-08T12:45:54.253Z,11.05
2023-02-08T12:48:56.172Z,15.95
2023-02-08T12:51:42.462Z,8.27
2023-02-08T12:54:16.522Z,9.77
2023-02-08T12:57:00.346Z,11.52
2023-02-08T12:59:37.288Z,8.90
2023-02-08T13:02:16.323Z,8.07
2023-02-08T13:04:48.317Z,7.47
2023-02-08T13:07:22.443Z,13.30
2023-02-08T13:09:58.816Z,8.10
2023-02-08T13:12:30.857Z,8.23
2023-02-08T13:15:09.247Z,8.77
2023-02-08T13:17:46.596Z,7.57
2023-02-08T13:20:36.224Z,11.25
2023-02-08T13:23:12.283Z,9.55
2023-02-08T13:25:44.393Z,9.98
2023-02-08T13:28:20.472Z,14.68
2023-02-08T13:31:00.299Z,12.63
2023-02-08T13:33:37.770Z,13.77
2023-02-08T13:36:07.482Z,10.15
2023-02-08T13:38:38.358Z,7.68
2023-02-08T13:41:16.368Z,13.25
2023-02-08T13:43:51.391Z,10.85
2023-02-08T13:46:23.066Z,10.18
2023-02-08T13:48:55.139Z,7.05
2023-02-08T13:51:56.580Z,11.77
2023-02-08T13:54:25.036Z,9.45
2023-02-08T13:56:54.488Z,7.55
2023-02-08T13:59:33.736Z,6.95
2023-02-08T14:02:28.341Z,9.57
2023-02-08T14:05:16.701Z,9.43
2023-02-08T14:07:48.389Z,8.52
2023-02-08T14:10:30.683Z,10.93
2023-02-08T14:13:04.848Z,8.65
2023-02-08T14:15:41.024Z,11.30
2023-02-08T14:18:34.252Z,8.75
2023-02-08T14:21:06.012Z,8.32
2023-02-08T14:23:40.193Z,8.00
2023-02-08T14:26:11.062Z,9.75
2023-02-08T14:28:45.211Z,8.48
2023-02-08T14:31:15.471Z,9.23
2023-02-08T14:33:54.122Z,9.85
2023-02-08T14:36:29.657Z,7.78
2023-02-08T14:39:22.845Z,6.50
2023-02-08T14:42:03.298Z,8.03
2023-02-08T14:45:05.777Z,6.97
2023-02-08T14:47:55.449Z,8.68
2023-02-08T14:50:29.194Z,7.25
2023-02-08T14:53:06.544Z,11.00
2023-02-08T14:55:42.523Z,13.52
2023-02-08T14:58:16.576Z,8.57
2023-02-08T15:00:45.870Z,11.40
2023-02-08T15:03:18.898Z,7.43
2023-02-08T15:06:12.771Z,7.22
2023-02-08T15:08:41.173Z,7.18
2023-02-08T15:11:22.708Z,10.07
2023-02-08T15:13:51.936Z,10.20
2023-02-08T15:16:21.302Z,6.97
2023-02-08T15:18:54.917Z,8.45
2023-02-08T15:21:31.622Z,6.72
2023-02-08T15:24:02.587Z,7.50
2023-02-08T15:26:32.365Z,9.30
2023-02-08T15:29:01.065Z,8.02
2023-02-08T15:31:33.814Z,8.18
2023-02-08T15:34:03.977Z,8.65
2023-02-08T15:36:35.918Z,6.70
2023-02-08T15:39:12.105Z,9.35
2023-02-08T15:41:40.280Z,10.73
2023-02-08T15:44:20.631Z,10.75
2023-02-08T15:46:56.709Z,7.90
2023-02-08T15:49:33.813Z,7.90
2023-02-08T15:52:04.392Z,8.23
2023-02-08T15:54:32.858Z,12.90
2023-02-08T15:57:04.364Z,7.57
2023-02-08T15:59:35.587Z,7.38
2023-02-08T16:02:19.532Z,8.52
2023-02-08T16:04:47.951Z,21.55
2023-02-08T16:07:26.669Z,8.88
2023-02-08T16:09:55.151Z,10.77
2023-02-08T16:12:25.271Z,9.52
2023-02-08T16:14:56.459Z,10.63
2023-02-08T16:17:43.056Z,8.98
2023-02-08T16:20:29.150Z,9.73
2023-02-08T16:23:30.423Z,8.80
2023-02-08T16:26:10.756Z,8.45
2023-02-08T16:28:38.855Z,10.98
2023-02-08T16:31:08.059Z,12.60
2023-02-08T16:33:37.997Z,10.50
2023-02-08T16:36:24.181Z,8.27
2023-02-08T16:39:24.103Z,8.02
2023-02-08T16:42:15.541Z,12.60
2023-02-08T16:45:05.870Z,8.60
2023-02-08T16:47:38.033Z,11.10
2023-02-08T16:50:07.304Z,15.25
2023-02-08T16:52:35.849Z,9.48
2023-02-08T16:55:06.661Z,10.63
2023-02-08T16:57:42.952Z,10.48
2023-02-08T17:00:18.343Z,13.38
2023-02-08T17:02:46.518Z,9.45
2023-02-08T17:05:15.965Z,12.73
2023-02-08T17:07:44.589Z,8.45
2023-02-08T17:10:22.599Z,12.65
2023-02-08T17:12:50.731Z,11.35
2023-02-08T17:15:21.143Z,9.75
2023-02-08T17:17:49.733Z,11.35
2023-02-08T17:20:34.423Z,13.52
2023-02-08T17:23:09.276Z,11.05
2023-02-08T17:25:39.865Z,14.05
2023-02-08T17:28:25.203Z,12.80
2023-02-08T17:31:13.630Z,12.82
2023-02-08T17:34:08.429Z,18.00
2023-02-08T17:36:46.863Z,16.95
2023-02-08T17:39:24.585Z,15.00
2023-02-08T17:42:27.685Z,12.85
2023-02-08T17:45:07.519Z,14.73
2023-02-08T17:47:45.136Z,18.13
2023-02-08T17:50:32.645Z,15.30
2023-02-08T17:53:11.834Z,17.55
2023-02-08T17:55:52.559Z,17.80
2023-02-08T17:58:32.522Z,17.52
2023-02-08T18:01:13.170Z,13.32
2023-02-08T18:03:45.843Z,11.15
2023-02-08T18:06:19.756Z,14.70
2023-02-08T18:08:48.594Z,19.23
2023-02-08T18:11:20.060Z,16.00
2023-02-08T18:13:50.452Z,10.18
2023-02-08T18:16:20.626Z,11.45
2023-02-08T18:18:48.828Z,14.10
2023-02-08T18:21:18.420Z,19.90
2023-02-08T18:23:47.670Z,13.70
2023-02-08T18:26:18.100Z,16.45
2023-02-08T18:28:46.849Z,11.52
2023-02-08T18:31:20.164Z,13.05
2023-02-08T18:36:21.832Z,11.52
2023-02-08T18:38:52.658Z,13.80
2023-02-08T18:41:23.675Z,12.45
2023-02-08T18:43:53.271Z,15.02
2023-02-08T18:46:24.986Z,11.63
2023-02-08T18:48:54.191Z,15.10
2023-02-08T18:51:24.025Z,9.52
2023-02-08T18:53:54.084Z,13.98
2023-02-08T18:56:24.273Z,10.63
2023-02-08T18:58:53.227Z,13.02
2023-02-08T19:01:24.963Z,11.32
2023-02-08T19:03:54.121Z,8.23
2023-02-08T19:06:24.707Z,9.95
2023-02-08T19:08:56.040Z,17.30
2023-02-08T19:11:26.240Z,11.43
2023-02-08T19:13:57.280Z,10.55
2023-02-08T19:16:27.696Z,11.32
2023-02-08T19:18:56.456Z,11.65
2023-02-08T19:21:25.125Z,15.95
2023-02-08T19:23:54.350Z,11.05
2023-02-08T19:26:24.697Z,12.50
2023-02-08T19:28:57.058Z,17.88
2023-02-08T19:31:28.626Z,13.68
2023-02-08T19:33:59.307Z,12.27
2023-02-08T19:36:29.777Z,9.63
2023-02-08T19:38:58.665Z,11.63
2023-02-08T19:41:28.867Z,10.00
2023-02-08T19:43:56.907Z,14.90
2023-02-08T19:46:28.103Z,8.75
2023-02-08T19:49:00.192Z,12.38
2023-02-08T19:51:30.294Z,11.85
2023-02-08T19:53:58.556Z,12.18
2023-02-08T19:56:26.534Z,10.10
2023-02-08T19:58:55.267Z,11.75
2023-02-08T20:01:24.340Z,12.85
2023-02-08T20:03:55.067Z,11.35
2023-02-08T20:06:25.926Z,12.38
2023-02-08T20:08:54.740Z,13.93
2023-02-08T20:11:24.795Z,11.63
2023-02-08T20:13:53.182Z,11.68
2023-02-08T20:16:22.656Z,10.95
2023-02-08T20:18:51.536Z,11.43
2023-02-08T20:21:21.672Z,10.45
2023-02-08T20:23:50.698Z,14.25
2023-02-08T20:26:20.987Z,11.70
2023-02-08T20:28:51.327Z,18.30
2023-02-08T20:31:21.826Z,8.88
2023-02-08T20:33:50.830Z,18.05
2023-02-08T20:36:22.005Z,12.50
2023-02-08T20:38:52.625Z,10.13
2023-02-08T20:41:22.876Z,13.15
2023-02-08T20:43:51.205Z,9.32
2023-02-08T20:46:22.225Z,14.32
2023-02-08T20:48:50.460Z,9.73
2023-02-08T20:51:22.957Z,12.50
2023-02-08T20:53:52.519Z,10.20
2023-02-08T20:56:22.974Z,14.30
2023-02-08T20:58:51.314Z,13.82
2023-02-08T21:01:21.333Z,11.93
2023-02-08T21:03:49.776Z,14.57
2023-02-08T21:06:19.797Z,12.30
2023-02-08T21:08:51.665Z,11.65
2023-02-08T21:11:21.471Z,14.98
2023-02-08T21:13:50.214Z,11.95
2023-02-08T21:16:19.109Z,15.27
2023-02-08T21:18:48.046Z,11.55
2023-02-08T21:21:16.788Z,14.18
2023-02-08T21:23:45.345Z,13.52
2023-02-08T21:26:17.765Z,13.45
2023-02-08T21:28:45.975Z,17.70
2023-02-08T21:31:22.049Z,10.20
2023-02-08T21:33:50.964Z,10.43
2023-02-08T21:36:21.043Z,11.00
2023-02-08T21:38:49.220Z,9.88
2023-02-08T21:41:21.224Z,11.80
2023-02-08T21:43:50.165Z,10.35
2023-02-08T21:46:19.215Z,10.70
2023-02-08T21:49:05.131Z,10.88
2023-02-08T21:51:51.305Z,14.02
2023-02-08T21:54:38.615Z,14.32
2023-02-08T21:57:10.916Z,9.63
2023-02-08T21:59:39.334Z,17.23
2023-02-08T22:02:09.241Z,10.90
2023-02-08T22:04:37.906Z,10.52
2023-02-08T22:07:05.914Z,14.60
2023-02-08T22:09:35.917Z,8.57
2023-02-08T22:12:03.970Z,10.27
2023-02-08T22:14:34.961Z,10.70
2023-02-08T22:17:03.121Z,17.20
2023-02-08T22:19:31.177Z,20.73
2023-02-08T22:21:59.090Z,11.77
2023-02-08T22:24:27.087Z,12.60
2023-02-08T22:26:55.277Z,8.80
2023-02-08T22:29:23.516Z,12.10
2023-02-08T22:31:53.196Z,9.93
2023-02-08T22:34:21.307Z,10.98
2023-02-08T22:36:49.458Z,11.50
2023-02-08T22:39:17.974Z,12.05
2023-02-08T22:41:45.947Z,10.50
2023-02-08T22:44:14.028Z,12.43
2023-02-08T22:46:42.251Z,10.20
2023-02-08T22:49:11.939Z,12.23
2023-02-08T22:51:39.860Z,10.63
2023-02-08T22:54:07.811Z,9.68
2023-02-08T22:56:35.720Z,10.10
2023-02-08T22:59:03.724Z,10.35
2023-02-08T23:01:31.887Z,12.43
2023-02-08T23:04:01.831Z,12.18
2023-02-08T23:06:31.629Z,12.70
2023-02-08T23:08:59.725Z,9.68
2023-02-08T23:11:27.886Z,12.98
2023-02-08T23:13:55.942Z,12.75
2023-02-08T23:16:25.755Z,11.52
2023-02-08T23:18:54.030Z,12.93
2023-02-08T23:21:22.759Z,16.67
2023-02-08T23:23:52.191Z,9.88
2023-02-08T23:26:21.943Z,11.48
2023-02-08T23:28:51.593Z,10.15
2023-02-08T23:31:20.211Z,12.88
2023-02-08T23:33:49.143Z,15.32
2023-02-08T23:36:20.725Z,11.88
2023-02-08T23:38:49.062Z,13.45
2023-02-08T23:41:20.141Z,14.18
2023-02-08T23:43:48.352Z,14.93
2023-02-08T23:46:19.399Z,11.82
2023-02-08T23:48:47.912Z,10.50
2023-02-08T23:51:17.493Z,10.35
2023-02-08T23:53:46.216Z,16.20
2023-02-08T23:56:17.435Z,12.65
2023-02-08T23:58:48.439Z,11.73
